Time;durP1;ratioP1;P1;durP2;ratioP2;P2;SDS_P1;SDS_P2;PMS_P1;PMS_P2;Temp;Humidity;BMP_temperature;BMP_pressure;BME280_temperature;BME280_humidity;BME280_pressure;Samples;Min_cycle;Max_cycle;Signal;HPM_P1;HPM_P2
2023/05/13 00:00:50;;;;;;;2.90;1.40;;;13.90;99.90;;;;;;5092160;28;20024;-81
2023/05/13 00:03:15;;;;;;;3.15;1.58;;;13.80;99.90;;;;;;5093048;28;20127;-81
2023/05/13 00:05:41;;;;;;;2.40;1.48;;;13.80;99.90;;;;;;5092581;28;20104;-80
2023/05/13 00:08:07;;;;;;;1.88;1.70;;;13.80;99.90;;;;;;5091915;28;20025;-81
2023/05/13 00:10:33;;;;;;;2.00;1.45;;;13.80;99.90;;;;;;5096808;28;20074;-80
2023/05/13 00:12:59;;;;;;;1.98;1.42;;;13.80;99.90;;;;;;5093274;28;20028;-87
2023/05/13 00:15:25;;;;;;;2.25;1.50;;;13.70;99.90;;;;;;5092174;28;20020;-80
2023/05/13 00:17:51;;;;;;;3.38;1.77;;;13.70;99.90;;;;;;5091483;28;20039;-80
2023/05/13 00:20:17;;;;;;;1.90;1.35;;;13.70;99.90;;;;;;5091355;28;20110;-80
2023/05/13 00:22:42;;;;;;;3.30;1.30;;;13.70;99.90;;;;;;5092051;28;20024;-82
2023/05/13 00:25:08;;;;;;;3.25;1.40;;;13.70;99.90;;;;;;5090921;28;20085;-81
2023/05/13 00:27:34;;;;;;;2.00;1.70;;;13.60;99.90;;;;;;5093446;28;20052;-81
2023/05/13 00:30:00;;;;;;;2.97;1.58;;;13.70;99.90;;;;;;5093816;28;20027;-81
2023/05/13 00:32:25;;;;;;;2.53;1.50;;;13.60;99.90;;;;;;5092528;28;20047;-81
2023/05/13 00:34:51;;;;;;;2.42;1.80;;;13.60;99.90;;;;;;5096114;28;20063;-81
2023/05/13 00:37:17;;;;;;;2.92;1.60;;;13.60;99.90;;;;;;5096807;28;20020;-81
2023/05/13 00:39:43;;;;;;;2.15;1.48;;;13.60;99.90;;;;;;5095915;28;20048;-81
2023/05/13 00:42:11;;;;;;;4.65;1.98;;;13.60;99.90;;;;;;5095702;28;20077;-81
2023/05/13 00:44:37;;;;;;;2.20;1.60;;;13.60;99.90;;;;;;5095703;28;20053;-80
2023/05/13 00:47:04;;;;;;;3.13;1.40;;;13.50;99.90;;;;;;5095525;28;20119;-85
2023/05/13 00:49:31;;;;;;;2.03;1.58;;;13.60;99.90;;;;;;5095729;28;20028;-79
2023/05/13 00:51:57;;;;;;;4.93;1.58;;;13.50;99.90;;;;;;5096901;28;20105;-80
2023/05/13 00:54:23;;;;;;;1.90;1.63;;;13.50;99.90;;;;;;5096502;28;20024;-80
2023/05/13 00:56:53;;;;;;;2.90;1.70;;;13.50;99.90;;;;;;5095758;28;20035;-80
2023/05/13 00:59:19;;;;;;;2.08;1.52;;;13.50;99.90;;;;;;5096318;28;20028;-80
2023/05/13 01:01:48;;;;;;;2.38;1.52;;;13.40;99.90;;;;;;5095318;28;20024;-80
2023/05/13 01:04:26;;;;;;;3.00;1.85;;;13.40;99.90;;;;;;5094853;28;20407;-80
2023/05/13 01:07:33;;;;;;;2.30;1.63;;;13.40;99.90;;;;;;5095575;28;20111;-80
2023/05/13 01:10:25;;;;;;;4.00;1.70;;;13.40;99.90;;;;;;5096529;28;20036;-79
2023/05/13 01:12:55;;;;;;;2.75;1.77;;;13.40;99.90;;;;;;5067515;28;20043;-80
2023/05/13 01:15:24;;;;;;;2.85;1.80;;;13.30;99.90;;;;;;5096088;28;20076;-80
2023/05/13 01:18:04;;;;;;;1.52;1.40;;;13.30;99.90;;;;;;5095038;28;20123;-80
2023/05/13 01:20:30;;;;;;;2.50;1.58;;;13.20;99.90;;;;;;5095078;28;20032;-80
2023/05/13 01:22:56;;;;;;;1.58;1.40;;;13.20;99.90;;;;;;5095060;28;20428;-80
2023/05/13 01:25:23;;;;;;;4.30;1.95;;;13.20;99.90;;;;;;5094442;28;20024;-80
2023/05/13 01:27:49;;;;;;;4.55;1.85;;;13.20;99.90;;;;;;5095931;28;20469;-80
2023/05/13 01:30:15;;;;;;;2.75;1.63;;;13.10;99.90;;;;;;5094446;28;20020;-81
2023/05/13 01:32:41;;;;;;;3.65;1.60;;;13.00;99.90;;;;;;5095196;28;20048;-80
2023/05/13 01:35:09;;;;;;;5.97;1.95;;;13.00;99.90;;;;;;5095558;28;20481;-80
2023/05/13 01:37:36;;;;;;;2.42;1.95;;;13.00;99.90;;;;;;5095025;28;20111;-80
2023/05/13 01:40:04;;;;;;;1.60;1.48;;;13.00;99.90;;;;;;5094326;28;20049;-87
2023/05/13 01:42:30;;;;;;;5.50;1.75;;;13.00;99.90;;;;;;5094462;28;20464;-80
2023/05/13 01:44:56;;;;;;;1.90;1.65;;;13.00;99.90;;;;;;5094168;28;20081;-79
2023/05/13 01:47:22;;;;;;;3.17;1.80;;;12.90;99.90;;;;;;5093965;28;20028;-80
2023/05/13 01:49:47;;;;;;;3.30;1.60;;;12.90;99.90;;;;;;5095837;28;20077;-80
2023/05/13 01:52:13;;;;;;;3.30;2.00;;;12.90;99.90;;;;;;5094168;28;20024;-81
2023/05/13 01:54:38;;;;;;;2.13;1.80;;;12.90;99.90;;;;;;5095666;28;20083;-80
2023/05/13 01:57:04;;;;;;;2.25;1.90;;;12.80;99.90;;;;;;5094448;28;20020;-88
2023/05/13 01:59:30;;;;;;;2.70;1.80;;;12.80;99.90;;;;;;5095474;28;20111;-80
2023/05/13 02:01:55;;;;;;;2.15;1.60;;;12.80;99.90;;;;;;5094303;28;20385;-80
2023/05/13 02:04:21;;;;;;;3.20;1.67;;;12.80;99.90;;;;;;5094908;28;20035;-81
2023/05/13 02:06:47;;;;;;;3.05;1.85;;;12.80;99.90;;;;;;5094282;28;20063;-81
2023/05/13 02:09:12;;;;;;;2.42;1.77;;;12.80;99.90;;;;;;5094158;28;20024;-81
2023/05/13 02:11:38;;;;;;;1.83;1.60;;;12.60;99.90;;;;;;5094509;28;20473;-80
2023/05/13 02:14:04;;;;;;;2.92;1.80;;;12.60;99.90;;;;;;5093519;28;20028;-90
2023/05/13 02:16:30;;;;;;;1.55;1.42;;;12.60;99.90;;;;;;5093665;28;20039;-81
2023/05/13 02:18:56;;;;;;;2.45;1.70;;;12.60;99.90;;;;;;5094788;28;20028;-80
2023/05/13 02:21:21;;;;;;;3.05;1.60;;;12.60;99.90;;;;;;5093606;28;20024;-80
2023/05/13 02:23:47;;;;;;;2.58;1.80;;;12.60;99.90;;;;;;5095182;28;20354;-81
2023/05/13 02:26:13;;;;;;;2.13;1.75;;;12.60;99.90;;;;;;5093384;28;20028;-82
2023/05/13 02:28:38;;;;;;;2.50;1.60;;;12.60;99.90;;;;;;5094980;28;20036;-81
2023/05/13 02:31:04;;;;;;;2.85;1.83;;;12.50;99.90;;;;;;5093718;28;20473;-87
2023/05/13 02:33:30;;;;;;;2.75;2.00;;;12.50;99.90;;;;;;5094696;28;20024;-81
2023/05/13 02:35:55;;;;;;;3.80;1.90;;;12.50;99.90;;;;;;5094883;28;20101;-82
2023/05/13 02:38:21;;;;;;;3.30;2.30;;;12.50;99.90;;;;;;5093429;28;20028;-81
2023/05/13 02:40:47;;;;;;;2.78;2.00;;;12.50;99.90;;;;;;5093699;28;20075;-81
2023/05/13 02:43:12;;;;;;;2.10;1.77;;;12.50;99.90;;;;;;5093382;28;20035;-81
2023/05/13 02:45:40;;;;;;;2.17;1.70;;;12.50;99.90;;;;;;5094875;28;20350;-81
2023/05/13 02:48:05;;;;;;;2.25;1.88;;;12.50;99.90;;;;;;5094587;28;20043;-85
2023/05/13 02:50:31;;;;;;;3.80;1.85;;;12.40;99.90;;;;;;5093216;28;20024;-80
2023/05/13 02:52:56;;;;;;;2.33;1.83;;;12.40;99.90;;;;;;5093519;28;20024;-80
2023/05/13 02:55:22;;;;;;;4.85;1.95;;;12.40;99.90;;;;;;5092689;28;20024;-81
2023/05/13 02:57:48;;;;;;;4.45;2.53;;;12.40;99.90;;;;;;5093900;28;20045;-80
2023/05/13 03:00:14;;;;;;;4.10;2.25;;;12.40;99.90;;;;;;5095180;28;20024;-81
2023/05/13 03:02:39;;;;;;;3.65;2.30;;;12.30;99.90;;;;;;5094596;28;20032;-79
2023/05/13 03:05:05;;;;;;;6.38;2.00;;;12.30;99.90;;;;;;5094350;28;20055;-80
2023/05/13 03:07:31;;;;;;;3.22;1.95;;;12.20;99.90;;;;;;5093327;28;20028;-80
2023/05/13 03:09:57;;;;;;;5.65;2.30;;;12.20;99.90;;;;;;5093276;28;20362;-81
2023/05/13 03:12:22;;;;;;;3.00;1.90;;;12.10;99.90;;;;;;5092900;28;20082;-81
2023/05/13 03:14:48;;;;;;;2.80;2.00;;;12.10;99.90;;;;;;5094280;28;20035;-80
2023/05/13 03:17:13;;;;;;;4.10;2.10;;;12.10;99.90;;;;;;5093769;28;20060;-81
2023/05/13 03:19:39;;;;;;;2.65;2.05;;;12.10;99.90;;;;;;5093880;28;20052;-80
2023/05/13 03:22:05;;;;;;;2.33;2.10;;;12.10;99.90;;;;;;5092910;28;20378;-80
2023/05/13 03:24:31;;;;;;;4.50;2.28;;;12.10;99.90;;;;;;5093650;28;20031;-80
2023/05/13 03:26:57;;;;;;;3.70;2.10;;;12.10;99.90;;;;;;5092786;28;20064;-80
2023/05/13 03:29:23;;;;;;;5.57;3.03;;;12.00;99.90;;;;;;5092411;28;20027;-81
2023/05/13 03:31:49;;;;;;;4.10;2.72;;;12.00;99.90;;;;;;5092985;28;20423;-81
2023/05/13 03:34:14;;;;;;;4.22;2.95;;;12.00;99.90;;;;;;5092708;28;20059;-81
2023/05/13 03:36:40;;;;;;;3.80;2.33;;;11.90;99.90;;;;;;5092856;28;20027;-80
2023/05/13 03:39:06;;;;;;;3.58;2.00;;;11.90;99.90;;;;;;5092835;28;20074;-81
2023/05/13 03:41:32;;;;;;;3.28;2.28;;;11.90;99.90;;;;;;5092655;28;20342;-80
2023/05/13 03:43:57;;;;;;;2.45;2.08;;;11.90;99.90;;;;;;5093850;28;20112;-81
2023/05/13 03:46:26;;;;;;;3.53;2.20;;;11.90;99.90;;;;;;5092370;28;20111;-81
2023/05/13 03:48:51;;;;;;;4.47;2.17;;;11.90;99.90;;;;;;5092729;28;20039;-80
2023/05/13 03:51:17;;;;;;;3.05;2.17;;;11.90;99.90;;;;;;5092147;28;20430;-81
2023/05/13 03:53:42;;;;;;;2.67;2.00;;;11.90;99.90;;;;;;5092842;28;20024;-80
2023/05/13 03:56:08;;;;;;;2.53;2.05;;;11.90;99.90;;;;;;5092540;28;20028;-81
2023/05/13 03:58:34;;;;;;;3.10;2.30;;;11.80;99.90;;;;;;5092287;28;20024;-81
2023/05/13 04:00:59;;;;;;;3.28;2.45;;;11.80;99.90;;;;;;5093523;28;20077;-80
2023/05/13 04:03:25;;;;;;;2.83;1.83;;;11.70;99.90;;;;;;5093225;28;20060;-80
2023/05/13 04:05:51;;;;;;;4.90;2.17;;;11.70;99.90;;;;;;5092219;28;20036;-80
2023/05/13 04:08:17;;;;;;;4.95;2.40;;;11.70;99.90;;;;;;5094741;28;20035;-80
2023/05/13 04:10:42;;;;;;;3.75;2.20;;;11.80;99.90;;;;;;5096785;28;20381;-81
2023/05/13 04:13:08;;;;;;;4.40;2.42;;;11.80;99.90;;;;;;5096650;28;20093;-80
2023/05/13 04:15:34;;;;;;;2.35;2.10;;;11.80;99.90;;;;;;5097059;28;20023;-80
2023/05/13 04:17:59;;;;;;;4.78;2.45;;;11.70;99.90;;;;;;5096363;28;20036;-80
2023/05/13 04:20:25;;;;;;;2.75;2.30;;;11.80;99.90;;;;;;5095827;28;20080;-80
2023/05/13 04:22:51;;;;;;;4.55;2.92;;;11.80;99.90;;;;;;5097287;28;20031;-80
2023/05/13 04:25:17;;;;;;;5.05;2.40;;;11.80;99.90;;;;;;5097028;28;20120;-81
2023/05/13 04:27:42;;;;;;;4.15;2.20;;;11.80;99.90;;;;;;5096193;28;20372;-80
2023/05/13 04:30:09;;;;;;;3.03;2.50;;;11.80;99.90;;;;;;5095887;28;20024;-80
2023/05/13 04:32:35;;;;;;;2.63;2.22;;;11.80;99.90;;;;;;5095716;28;20044;-80
2023/05/13 04:35:00;;;;;;;3.78;2.30;;;11.70;99.90;;;;;;5095723;28;20032;-80
2023/05/13 04:37:26;;;;;;;5.00;2.47;;;11.70;99.90;;;;;;5095320;28;20020;-80
2023/05/13 04:39:52;;;;;;;3.17;2.33;;;11.70;99.90;;;;;;5095698;28;20130;-80
2023/05/13 04:42:17;;;;;;;4.57;2.65;;;11.70;99.90;;;;;;5095820;28;20096;-86
2023/05/13 04:44:43;;;;;;;3.75;2.30;;;11.70;99.90;;;;;;5089183;28;20032;-82
2023/05/13 04:47:09;;;;;;;4.03;2.20;;;11.70;99.90;;;;;;5096299;28;20054;-81
2023/05/13 04:49:35;;;;;;;4.18;2.28;;;11.70;99.90;;;;;;5100877;28;20180;-80
2023/05/13 04:52:02;;;;;;;5.38;2.47;;;11.80;99.90;;;;;;5096399;28;20035;-81
2023/05/13 04:54:28;;;;;;;3.00;2.28;;;11.80;99.90;;;;;;5096108;28;20024;-81
2023/05/13 04:56:53;;;;;;;3.60;2.08;;;11.80;99.90;;;;;;5095500;28;20130;-83
2023/05/13 04:59:19;;;;;;;4.10;2.40;;;11.80;99.90;;;;;;5094894;28;20474;-81
2023/05/13 05:01:44;;;;;;;3.55;2.30;;;11.80;99.90;;;;;;5095482;28;20138;-80
2023/05/13 05:04:11;;;;;;;4.50;2.00;;;11.90;99.90;;;;;;5095156;28;20072;-83
2023/05/13 05:06:37;;;;;;;3.00;2.40;;;11.80;99.90;;;;;;5095616;28;20453;-81
2023/05/13 05:09:03;;;;;;;3.05;2.60;;;11.90;99.90;;;;;;5094835;28;20034;-82
2023/05/13 05:11:29;;;;;;;2.58;2.10;;;11.90;99.90;;;;;;5095274;28;20140;-80
2023/05/13 05:13:55;;;;;;;3.90;2.50;;;11.80;99.90;;;;;;5095283;28;20028;-81
2023/05/13 05:16:21;;;;;;;3.53;2.53;;;11.90;99.90;;;;;;5095802;28;20067;-81
2023/05/13 05:18:46;;;;;;;3.83;2.55;;;11.90;99.90;;;;;;5094160;28;20025;-82
2023/05/13 05:21:12;;;;;;;4.25;2.70;;;11.90;99.90;;;;;;5094032;28;20034;-81
2023/05/13 05:23:38;;;;;;;3.17;2.40;;;11.90;99.90;;;;;;5093535;28;20476;-81
2023/05/13 05:26:03;;;;;;;4.68;2.40;;;11.90;99.90;;;;;;5094077;28;20024;-82
2023/05/13 05:28:29;;;;;;;4.10;2.50;;;11.90;99.90;;;;;;5093952;28;20028;-81
2023/05/13 05:30:55;;;;;;;3.83;2.40;;;12.00;99.90;;;;;;5094279;28;20031;-82
2023/05/13 05:33:21;;;;;;;4.05;2.28;;;12.00;99.90;;;;;;5095258;28;20024;-81
2023/05/13 05:35:47;;;;;;;2.47;2.20;;;12.10;99.90;;;;;;5094583;28;20028;-82
2023/05/13 05:38:12;;;;;;;3.70;2.33;;;12.10;99.90;;;;;;5094367;28;20024;-83
2023/05/13 05:40:43;;;;;;;3.58;2.28;;;12.20;99.90;;;;;;5093924;28;20541;-82
2023/05/13 05:43:12;;;;;;;4.35;2.40;;;12.20;99.90;;;;;;5091825;28;20078;-81
2023/05/13 05:45:38;;;;;;;3.63;2.20;;;12.30;99.90;;;;;;5094627;28;20031;-82
2023/05/13 05:48:05;;;;;;;3.17;2.22;;;12.30;99.90;;;;;;5079700;28;20036;-81
2023/05/13 05:50:35;;;;;;;4.40;2.13;;;12.30;99.90;;;;;;5093427;28;20028;-81
2023/05/13 05:53:01;;;;;;;2.88;2.00;;;12.30;99.90;;;;;;5093902;28;20024;-82
2023/05/13 05:55:27;;;;;;;2.38;1.80;;;12.40;99.90;;;;;;5094292;28;20035;-82
2023/05/13 05:57:53;;;;;;;3.15;1.90;;;12.50;99.90;;;;;;5094510;28;20035;-81
2023/05/13 06:00:19;;;;;;;3.20;2.30;;;12.50;99.90;;;;;;5094875;28;20536;-89
2023/05/13 06:02:45;;;;;;;2.78;2.22;;;12.50;99.90;;;;;;5095506;28;20107;-80
2023/05/13 06:05:11;;;;;;;3.40;2.28;;;12.50;99.90;;;;;;5093828;28;20028;-81
2023/05/13 06:07:36;;;;;;;4.05;2.15;;;12.60;99.90;;;;;;5092929;28;20212;-81
2023/05/13 06:10:02;;;;;;;2.60;2.08;;;12.60;99.90;;;;;;5094047;28;20060;-80
2023/05/13 06:12:28;;;;;;;2.33;1.58;;;12.60;99.90;;;;;;5094291;28;20436;-81
2023/05/13 06:14:53;;;;;;;3.08;2.25;;;12.70;99.90;;;;;;5093705;28;20028;-81
2023/05/13 06:17:19;;;;;;;2.85;2.20;;;12.70;99.90;;;;;;5093266;28;20388;-87
2023/05/13 06:19:45;;;;;;;2.58;2.00;;;12.70;99.90;;;;;;5094671;28;20024;-81
2023/05/13 06:22:11;;;;;;;4.13;2.10;;;12.80;99.90;;;;;;5093558;28;20080;-81
2023/05/13 06:24:41;;;;;;;3.47;2.40;;;12.80;99.90;;;;;;5092654;28;20024;-82
2023/05/13 06:27:07;;;;;;;3.47;2.22;;;12.80;99.90;;;;;;5093107;28;20035;-81
2023/05/13 06:29:32;;;;;;;4.55;2.15;;;12.90;99.90;;;;;;5093908;28;20020;-80
2023/05/13 06:31:58;;;;;;;2.35;2.00;;;12.90;99.90;;;;;;5093107;28;20031;-81
2023/05/13 06:34:23;;;;;;;3.13;2.25;;;13.00;99.90;;;;;;5093772;28;20384;-81
2023/05/13 06:36:49;;;;;;;3.67;1.77;;;13.00;99.90;;;;;;5093730;28;20024;-80
2023/05/13 06:39:14;;;;;;;2.28;2.03;;;13.00;99.90;;;;;;5094518;28;20452;-80
2023/05/13 06:41:40;;;;;;;2.97;1.73;;;13.00;99.90;;;;;;5094325;28;20035;-80
2023/05/13 06:44:06;;;;;;;4.00;2.05;;;13.10;99.90;;;;;;5093381;28;20028;-80
2023/05/13 06:46:32;;;;;;;4.00;1.90;;;13.10;99.90;;;;;;5092901;28;20028;-80
2023/05/13 06:48:58;;;;;;;3.15;1.90;;;13.10;99.90;;;;;;5093135;28;20088;-80
2023/05/13 06:51:26;;;;;;;2.58;1.80;;;13.20;99.90;;;;;;5092750;28;20473;-81
2023/05/13 06:53:52;;;;;;;3.60;1.90;;;13.20;99.90;;;;;;5093365;28;20381;-80
2023/05/13 06:56:18;;;;;;;2.55;1.75;;;13.20;99.90;;;;;;5092608;28;20035;-91
2023/05/13 06:58:44;;;;;;;2.17;1.88;;;13.30;99.90;;;;;;5092512;28;20169;-80
2023/05/13 07:01:10;;;;;;;4.38;2.13;;;13.30;99.90;;;;;;5094020;28;20465;-80
2023/05/13 07:03:36;;;;;;;3.33;2.30;;;13.30;99.90;;;;;;5092263;28;20028;-80
2023/05/13 07:06:03;;;;;;;3.45;1.80;;;13.30;99.90;;;;;;5093780;28;20024;-80
2023/05/13 07:08:29;;;;;;;5.03;1.85;;;13.30;99.90;;;;;;5092347;28;20127;-80
2023/05/13 07:10:54;;;;;;;3.22;1.85;;;13.40;99.90;;;;;;5094393;28;20022;-81
2023/05/13 07:13:20;;;;;;;2.85;2.28;;;13.40;99.90;;;;;;5092912;28;20024;-84
2023/05/13 07:15:46;;;;;;;2.63;2.28;;;13.40;99.90;;;;;;5092699;28;20387;-79
2023/05/13 07:18:12;;;;;;;2.92;1.98;;;13.40;99.90;;;;;;5094347;28;20039;-81
2023/05/13 07:20:37;;;;;;;2.05;1.77;;;13.50;99.90;;;;;;5092810;28;20492;-81
2023/05/13 07:23:03;;;;;;;3.15;2.00;;;13.50;99.90;;;;;;5094137;28;20024;-81
2023/05/13 07:25:28;;;;;;;2.55;1.90;;;13.50;99.90;;;;;;5092313;28;20473;-81
2023/05/13 07:27:54;;;;;;;2.35;1.85;;;13.60;99.90;;;;;;5092849;28;20024;-80
2023/05/13 07:30:20;;;;;;;3.65;1.95;;;13.60;99.90;;;;;;5092563;28;20032;-89
2023/05/13 07:32:45;;;;;;;3.92;2.05;;;13.60;99.90;;;;;;5092694;28;20059;-81
2023/05/13 07:35:11;;;;;;;3.45;2.05;;;13.60;99.90;;;;;;5092700;28;20399;-80
2023/05/13 07:37:37;;;;;;;4.30;2.30;;;13.70;99.90;;;;;;5092405;28;20028;-80
2023/05/13 07:40:04;;;;;;;4.53;2.13;;;13.70;99.90;;;;;;5092338;28;20048;-80
2023/05/13 07:42:30;;;;;;;5.28;2.10;;;13.70;99.90;;;;;;5094027;28;20034;-80
2023/05/13 07:44:56;;;;;;;3.80;2.00;;;13.80;99.90;;;;;;5097424;28;20119;-81
2023/05/13 07:47:21;;;;;;;3.28;1.90;;;13.80;99.90;;;;;;5090726;28;20035;-80
2023/05/13 07:49:48;;;;;;;1.80;1.60;;;13.80;99.90;;;;;;5092008;28;20032;-81
2023/05/13 07:52:13;;;;;;;2.65;1.95;;;13.80;99.90;;;;;;5092410;28;20035;-81
2023/05/13 07:54:39;;;;;;;5.63;2.20;;;13.90;99.90;;;;;;5091854;28;20032;-81
2023/05/13 07:57:05;;;;;;;5.07;1.90;;;13.90;99.90;;;;;;5092735;28;20024;-81
2023/05/13 07:59:30;;;;;;;2.17;1.98;;;13.90;99.90;;;;;;5092912;28;20025;-80
2023/05/13 08:01:56;;;;;;;3.13;2.10;;;13.90;99.90;;;;;;5092020;28;20030;-80
2023/05/13 08:04:21;;;;;;;3.38;2.03;;;13.90;99.90;;;;;;5091239;28;20085;-83
2023/05/13 08:06:47;;;;;;;4.00;1.80;;;14.00;99.90;;;;;;5092706;28;20040;-82
2023/05/13 08:09:13;;;;;;;4.82;2.28;;;14.00;99.90;;;;;;5091735;28;20090;-80
2023/05/13 08:11:38;;;;;;;2.72;2.08;;;14.10;99.90;;;;;;5092573;28;20031;-82
2023/05/13 08:14:05;;;;;;;2.40;2.00;;;14.10;99.90;;;;;;5092697;28;20029;-81
2023/05/13 08:16:30;;;;;;;2.42;1.73;;;14.20;99.90;;;;;;5092431;28;20036;-82
2023/05/13 08:18:56;;;;;;;4.57;2.47;;;14.30;99.90;;;;;;5091598;28;20405;-81
2023/05/13 08:21:22;;;;;;;4.50;1.98;;;14.30;99.90;;;;;;5091343;28;20048;-80
2023/05/13 08:23:49;;;;;;;2.97;1.88;;;14.40;99.90;;;;;;5091293;28;20031;-79
2023/05/13 08:26:15;;;;;;;2.63;2.00;;;14.40;99.90;;;;;;5090728;28;20028;-79
2023/05/13 08:28:41;;;;;;;3.45;2.20;;;14.50;99.90;;;;;;5089749;28;20354;-79
2023/05/13 08:31:07;;;;;;;3.08;2.00;;;14.60;99.90;;;;;;5092143;28;20333;-80
2023/05/13 08:33:33;;;;;;;3.30;2.00;;;14.70;99.90;;;;;;5092208;28;20028;-79
2023/05/13 08:35:59;;;;;;;3.92;2.20;;;14.80;99.90;;;;;;5091050;28;20439;-79
2023/05/13 08:38:25;;;;;;;3.33;1.90;;;15.00;99.90;;;;;;5092040;28;20020;-79
2023/05/13 08:40:51;;;;;;;2.72;1.75;;;15.10;99.90;;;;;;5089030;28;20097;-90
2023/05/13 08:43:18;;;;;;;2.28;1.90;;;15.10;99.90;;;;;;5087782;28;20106;-91
2023/05/13 08:45:46;;;;;;;2.83;2.00;;;15.30;99.90;;;;;;5091615;28;20060;-94
2023/05/13 08:48:15;;;;;;;3.25;1.60;;;15.40;99.90;;;;;;5091979;28;20032;-90
2023/05/13 08:50:41;;;;;;;2.40;1.70;;;15.40;99.90;;;;;;5091586;28;20496;-91
2023/05/13 08:53:08;;;;;;;2.22;2.00;;;15.50;99.90;;;;;;5091993;28;20078;-83
2023/05/13 08:55:33;;;;;;;2.95;2.13;;;15.60;99.90;;;;;;5094296;28;20028;-94
2023/05/13 08:57:59;;;;;;;11.95;2.17;;;15.70;99.90;;;;;;5095703;28;20035;-83
2023/05/13 09:00:25;;;;;;;2.15;1.95;;;15.70;99.90;;;;;;5094725;28;20027;-84
2023/05/13 09:02:50;;;;;;;2.30;1.90;;;15.80;99.90;;;;;;5096312;28;20027;-84
2023/05/13 09:05:17;;;;;;;2.45;1.90;;;15.80;99.90;;;;;;5094472;28;20042;-84
2023/05/13 09:07:42;;;;;;;2.30;2.03;;;16.00;99.90;;;;;;5094040;28;20445;-83
2023/05/13 09:10:09;;;;;;;3.28;2.13;;;16.10;99.90;;;;;;5090082;28;20057;-82
2023/05/13 09:12:43;;;;;;;3.38;1.90;;;16.10;99.90;;;;;;5093268;28;20027;-83
2023/05/13 09:15:11;;;;;;;6.10;2.30;;;16.10;99.90;;;;;;5094146;28;20135;-82
2023/05/13 09:17:41;;;;;;;2.53;1.98;;;16.30;99.90;;;;;;5094030;28;20032;-82
2023/05/13 09:20:08;;;;;;;3.83;1.67;;;16.30;99.90;;;;;;5093202;28;20114;-82
2023/05/13 09:22:34;;;;;;;2.92;1.70;;;16.40;99.90;;;;;;5096495;28;20020;-82
2023/05/13 09:24:59;;;;;;;2.25;1.60;;;16.50;99.90;;;;;;5098730;28;20469;-83
2023/05/13 09:27:39;;;;;;;4.15;1.90;;;16.60;99.90;;;;;;5093770;28;20031;-83
2023/05/13 09:30:06;;;;;;;2.88;2.40;;;16.60;99.90;;;;;;5094178;28;20046;-83
2023/05/13 09:32:31;;;;;;;5.43;1.73;;;16.70;99.90;;;;;;5095264;28;20036;-85
2023/05/13 09:35:15;;;;;;;4.10;1.65;;;16.70;99.90;;;;;;5094512;28;20028;-90
2023/05/13 09:37:47;;;;;;;4.55;1.58;;;16.70;99.90;;;;;;5094265;28;20028;-79
2023/05/13 09:40:15;;;;;;;2.50;1.63;;;16.70;99.90;;;;;;5088924;28;20044;-79
2023/05/13 09:42:43;;;;;;;3.38;1.45;;;16.80;99.90;;;;;;5097408;28;20023;-79
2023/05/13 09:45:12;;;;;;;2.80;1.80;;;16.90;99.90;;;;;;5088873;28;20032;-92
2023/05/13 09:47:39;;;;;;;2.92;1.60;;;16.90;99.90;;;;;;5093177;28;20171;-93
2023/05/13 09:50:06;;;;;;;3.63;1.55;;;17.00;99.90;;;;;;5094275;28;20013;-93
2023/05/13 09:52:33;;;;;;;2.38;1.70;;;17.10;99.90;;;;;;5093988;28;20028;-93
2023/05/13 09:55:00;;;;;;;3.65;1.70;;;17.20;99.90;;;;;;5093672;28;20032;-92
2023/05/13 09:57:27;;;;;;;3.78;1.73;;;17.30;99.90;;;;;;5094733;28;20081;-93
2023/05/13 09:59:59;;;;;;;3.22;1.70;;;17.40;99.90;;;;;;5094281;28;20032;-92
2023/05/13 10:02:25;;;;;;;2.50;1.90;;;17.50;99.90;;;;;;5093971;28;20024;-90
2023/05/13 10:04:55;;;;;;;2.63;1.83;;;17.50;99.90;;;;;;5093783;28;20039;-89
2023/05/13 10:07:23;;;;;;;3.22;1.92;;;17.50;99.90;;;;;;5093944;28;20073;-90
2023/05/13 10:09:56;;;;;;;4.07;1.83;;;17.60;99.90;;;;;;5093752;28;20121;-87
2023/05/13 10:12:24;;;;;;;2.75;1.30;;;17.70;99.90;;;;;;5079421;28;20160;-87
2023/05/13 10:14:51;;;;;;;2.92;1.85;;;17.80;99.90;;;;;;5093729;28;20028;-90
2023/05/13 10:17:22;;;;;;;2.63;1.50;;;17.80;99.90;;;;;;5093167;28;20032;-86
2023/05/13 10:19:53;;;;;;;3.20;2.03;;;17.80;99.90;;;;;;5094344;28;20024;-90
2023/05/13 10:22:30;;;;;;;1.80;1.50;;;17.90;99.90;;;;;;5078663;28;20465;-86
2023/05/13 10:24:59;;;;;;;2.70;1.60;;;17.90;99.90;;;;;;5093712;28;20032;-90
2023/05/13 10:27:31;;;;;;;2.22;1.55;;;18.00;99.90;;;;;;5093591;28;20032;-89
2023/05/13 10:29:58;;;;;;;3.78;1.30;;;17.90;99.90;;;;;;5093806;28;20118;-87
2023/05/13 10:32:26;;;;;;;1.90;1.58;;;18.00;99.90;;;;;;5093492;28;20024;-86
2023/05/13 10:35:00;;;;;;;2.58;1.60;;;18.00;99.90;;;;;;5093833;28;20118;-89
2023/05/13 10:38:03;;;;;;;5.28;1.65;;;18.00;99.90;;;;;;5093430;28;20025;-91
2023/05/13 10:41:00;;;;;;;2.13;1.42;;;18.10;99.90;;;;;;5090914;28;20106;-91
2023/05/13 10:43:29;;;;;;;2.05;1.73;;;18.10;99.90;;;;;;5093030;28;20065;-91
2023/05/13 10:46:06;;;;;;;2.03;1.50;;;18.10;99.90;;;;;;5093297;28;20031;-86
2023/05/13 10:48:45;;;;;;;1.40;1.20;;;18.20;99.90;;;;;;5092633;28;20051;-90
2023/05/13 10:51:23;;;;;;;2.50;1.30;;;18.20;99.90;;;;;;5090373;28;20028;-81
2023/05/13 10:53:50;;;;;;;3.80;1.55;;;18.30;99.90;;;;;;5093349;28;20031;-80
2023/05/13 10:56:19;;;;;;;1.98;1.30;;;18.30;99.90;;;;;;5093635;28;20504;-80
2023/05/13 10:59:03;;;;;;;2.42;1.40;;;18.40;99.90;;;;;;5092000;28;20063;-80
2023/05/13 11:01:32;;;;;;;1.92;1.38;;;18.50;99.90;;;;;;5090383;28;20176;-81
2023/05/13 11:04:03;;;;;;;1.88;1.00;;;18.40;99.90;;;;;;5089576;28;20059;-81
2023/05/13 11:06:34;;;;;;;1.55;1.10;;;18.40;99.90;;;;;;5091009;28;20046;-81
2023/05/13 11:08:59;;;;;;;1.30;1.00;;;18.40;99.90;;;;;;5088785;28;20044;-83
2023/05/13 11:11:33;;;;;;;1.38;1.20;;;18.40;99.90;;;;;;5078201;28;20134;-81
2023/05/13 11:13:58;;;;;;;1.58;1.00;;;18.50;99.90;;;;;;5089370;28;20028;-81
2023/05/13 11:16:24;;;;;;;2.22;1.10;;;18.60;99.90;;;;;;5092177;28;20047;-85
2023/05/13 11:18:51;;;;;;;4.63;1.23;;;18.60;99.90;;;;;;5092144;28;20032;-86
2023/05/13 11:21:27;;;;;;;0.90;0.90;;;18.70;99.90;;;;;;5092863;28;20116;-89
2023/05/13 11:23:59;;;;;;;1.45;0.85;;;18.70;99.90;;;;;;5094339;28;20081;-86
2023/05/13 11:26:25;;;;;;;0.93;0.80;;;18.80;99.90;;;;;;5092249;28;20039;-87
2023/05/13 11:28:54;;;;;;;1.83;1.05;;;18.80;99.90;;;;;;5093395;28;20032;-87
2023/05/13 11:31:21;;;;;;;1.10;0.95;;;18.90;99.90;;;;;;5093493;28;20028;-86
2023/05/13 11:34:10;;;;;;;2.25;1.00;;;19.00;99.90;;;;;;5092950;28;20046;-85
2023/05/13 11:36:37;;;;;;;1.30;1.13;;;19.10;99.90;;;;;;5091693;28;20115;-86
2023/05/13 11:39:15;;;;;;;1.88;1.35;;;19.10;99.90;;;;;;5092123;28;20032;-87
2023/05/13 11:41:43;;;;;;;1.27;1.10;;;19.10;99.90;;;;;;5089010;28;20044;-86
2023/05/13 11:44:10;;;;;;;5.10;1.27;;;19.10;99.90;;;;;;5090732;28;20029;-88
2023/05/13 11:46:36;;;;;;;1.73;1.33;;;19.10;99.90;;;;;;5090225;28;20040;-86
2023/05/13 11:49:02;;;;;;;2.10;1.10;;;19.20;99.90;;;;;;5090208;28;20032;-85
2023/05/13 11:51:28;;;;;;;2.50;1.15;;;19.20;99.90;;;;;;5090938;28;20055;-85
2023/05/13 11:54:01;;;;;;;1.38;1.27;;;19.30;99.90;;;;;;5089672;28;20038;-83
2023/05/13 11:56:27;;;;;;;1.42;1.17;;;19.40;99.90;;;;;;5092266;28;20032;-84
2023/05/13 11:58:54;;;;;;;1.30;1.20;;;19.50;99.90;;;;;;5092597;28;20039;-83
2023/05/13 12:01:20;;;;;;;2.05;1.17;;;19.70;99.90;;;;;;5091569;28;20050;-90
2023/05/13 12:03:46;;;;;;;2.45;1.40;;;19.80;99.90;;;;;;5092317;28;20473;-92
2023/05/13 12:06:12;;;;;;;2.45;1.42;;;20.00;99.90;;;;;;5092962;28;20020;-94
2023/05/13 12:08:45;;;;;;;1.40;1.20;;;20.10;99.90;;;;;;5091242;28;20035;-95
2023/05/13 12:11:12;;;;;;;2.65;1.20;;;20.10;99.90;;;;;;5092653;28;20126;-88
2023/05/13 12:13:41;;;;;;;2.83;1.40;;;20.10;99.90;;;;;;5104105;28;20023;-85
2023/05/13 12:16:07;;;;;;;1.00;1.00;;;19.90;99.90;;;;;;5090345;28;20054;-85
2023/05/13 12:18:33;;;;;;;1.38;1.13;;;19.70;99.90;;;;;;5091518;28;20491;-86
2023/05/13 12:20:59;;;;;;;1.33;1.13;;;19.60;99.90;;;;;;5093162;28;20060;-85
2023/05/13 12:23:24;;;;;;;2.88;0.90;;;19.60;99.90;;;;;;5092483;28;20051;-86
2023/05/13 12:25:50;;;;;;;1.40;1.00;;;19.50;99.90;;;;;;5090886;28;20032;-87
2023/05/13 12:28:17;;;;;;;1.20;1.10;;;19.50;99.90;;;;;;5092687;28;20039;-88
2023/05/13 12:30:54;;;;;;;2.05;1.00;;;19.60;99.90;;;;;;5093789;28;20024;-86
2023/05/13 12:33:22;;;;;;;1.92;1.20;;;19.70;99.90;;;;;;5095681;28;20036;-87
2023/05/13 12:35:50;;;;;;;2.10;1.30;;;19.70;99.90;;;;;;5095886;28;20056;-88
2023/05/13 12:38:18;;;;;;;1.60;1.35;;;19.80;99.90;;;;;;5096933;28;20107;-87
2023/05/13 12:40:45;;;;;;;2.35;1.75;;;19.90;99.90;;;;;;5090703;28;20075;-88
2023/05/13 12:43:14;;;;;;;4.07;1.50;;;20.00;99.90;;;;;;5103519;28;20028;-84
2023/05/13 12:45:42;;;;;;;1.80;1.48;;;20.10;99.90;;;;;;5100173;28;20443;-85
2023/05/13 12:48:08;;;;;;;3.05;1.38;;;20.20;99.90;;;;;;5095343;28;20064;-86